createdAt,value
2017-09-08T00:00:14.380Z,100834.16
2017-09-08T00:02:42.895Z,100832.95
2017-09-08T00:05:11.344Z,100835.91
2017-09-08T00:07:39.776Z,100837.32
2017-09-08T00:10:08.228Z,100832.56
2017-09-08T00:12:36.660Z,100833.73
2017-09-08T00:15:05.212Z,100827.70
2017-09-08T00:17:33.697Z,100834.41
2017-09-08T00:20:02.143Z,100829.97
2017-09-08T00:22:30.671Z,100827.77
2017-09-08T00:25:00.736Z,100826.38
2017-09-08T00:27:29.931Z,100827.05
2017-09-08T00:29:58.384Z,100825.59
2017-09-08T00:32:26.836Z,100824.53
2017-09-08T00:34:55.320Z,100823.48
2017-09-08T00:37:23.802Z,100826.06
2017-09-08T00:39:52.252Z,100821.09
2017-09-08T00:42:21.488Z,100820.99
2017-09-08T00:44:49.959Z,100813.17
2017-09-08T00:47:18.447Z,100814.38
2017-09-08T00:49:46.896Z,100814.61
2017-09-08T00:52:16.088Z,100809.36
2017-09-08T00:54:45.295Z,100812.20
2017-09-08T00:57:14.523Z,100813.37
2017-09-08T00:59:42.971Z,100812.41
2017-09-08T01:02:12.215Z,100810.95
2017-09-08T01:04:40.654Z,100816.97
2017-09-08T01:07:09.852Z,100810.03
2017-09-08T01:09:39.084Z,100809.14
2017-09-08T01:12:07.512Z,100809.89
2017-09-08T01:14:36.048Z,100802.94
2017-09-08T01:17:04.479Z,100795.15
2017-09-08T01:19:33.736Z,100797.34
2017-09-08T01:22:02.212Z,100795.15
2017-09-08T01:24:30.813Z,100795.17
2017-09-08T01:26:59.249Z,100795.03
2017-09-08T01:29:28.464Z,100790.22
2017-09-08T01:31:56.961Z,100785.87
2017-09-08T01:34:25.427Z,100787.17
2017-09-08T01:36:54.788Z,100784.66
2017-09-08T01:39:23.221Z,100778.61
2017-09-08T01:41:51.672Z,100776.89
2017-09-08T01:44:20.862Z,100770.84
2017-09-08T01:46:50.080Z,100767.70
2017-09-08T01:49:19.307Z,100773.34
2017-09-08T01:51:47.756Z,100771.12
2017-09-08T01:54:16.984Z,100765.94
2017-09-08T01:56:45.432Z,100780.95
2017-09-08T01:59:14.664Z,100779.17
2017-09-08T02:01:43.163Z,100779.69
2017-09-08T02:04:11.628Z,100784.44
2017-09-08T02:06:40.103Z,100783.98
2017-09-08T02:09:08.536Z,100785.73
2017-09-08T02:11:37.081Z,100772.80
2017-09-08T02:14:05.566Z,100768.34
2017-09-08T02:16:34.039Z,100757.70
2017-09-08T02:19:02.519Z,100762.41
2017-09-08T02:24:33.450Z,100749.09
2017-09-08T02:27:02.684Z,100749.02
2017-09-08T02:29:31.113Z,100745.08
2017-09-08T02:31:59.572Z,100745.09
2017-09-08T02:34:28.008Z,100740.72
2017-09-08T02:36:57.225Z,100744.61
2017-09-08T02:39:25.708Z,100738.91
2017-09-08T02:41:54.156Z,100733.72
2017-09-08T02:44:23.353Z,100732.80
2017-09-08T02:46:52.587Z,100728.95
2017-09-08T02:49:21.021Z,100721.27
2017-09-08T02:51:49.477Z,100716.92
2017-09-08T02:54:17.907Z,100701.59
2017-09-08T02:56:47.227Z,100703.42
2017-09-08T02:59:15.712Z,100702.10
2017-09-08T03:01:44.161Z,100693.89
2017-09-08T03:04:13.364Z,100696.83
2017-09-08T03:06:42.696Z,100696.48
2017-09-08T03:09:11.140Z,100698.23
2017-09-08T03:11:40.350Z,100687.84
2017-09-08T03:14:09.572Z,100690.89
2017-09-08T03:16:38.055Z,100687.80
2017-09-08T03:19:06.549Z,100684.80
2017-09-08T03:21:34.985Z,100682.08
2017-09-08T03:24:04.208Z,100677.81
2017-09-08T03:26:32.699Z,100680.81
2017-09-08T03:29:01.148Z,100668.67
2017-09-08T03:31:30.390Z,100672.59
2017-09-08T03:33:58.848Z,100670.00
2017-09-08T03:36:28.073Z,100672.47
2017-09-08T03:38:56.549Z,100664.21
2017-09-08T03:41:24.984Z,100659.77
2017-09-08T03:43:53.513Z,100664.53
2017-09-08T03:46:21.992Z,100671.05
2017-09-08T03:48:50.448Z,100662.91
2017-09-08T03:51:19.645Z,100660.29
2017-09-08T03:53:48.860Z,100654.15
2017-09-08T03:56:17.351Z,100659.26
2017-09-08T03:58:45.842Z,100651.08
2017-09-08T04:01:14.326Z,100651.90
2017-09-08T04:03:42.808Z,100645.38
2017-09-08T04:06:11.280Z,100642.73
2017-09-08T04:08:39.764Z,100639.72
2017-09-08T04:11:08.248Z,100642.78
2017-09-08T04:13:36.721Z,100642.26
2017-09-08T04:16:05.151Z,100638.30
2017-09-08T04:18:33.703Z,100638.72
2017-09-08T04:21:02.987Z,100632.56
2017-09-08T04:23:31.435Z,100626.55
2017-09-08T04:26:00.641Z,100627.33
2017-09-08T04:28:29.843Z,100633.02
2017-09-08T04:30:59.181Z,100632.12
2017-09-08T04:33:27.650Z,100629.31
2017-09-08T04:35:56.090Z,100624.65
2017-09-08T04:38:24.616Z,100631.09
2017-09-08T04:40:53.063Z,100621.92
2017-09-08T04:43:22.272Z,100621.92
2017-09-08T04:45:51.487Z,100623.11
2017-09-08T04:48:19.915Z,100620.47
2017-09-08T04:50:48.464Z,100618.61
2017-09-08T04:53:16.953Z,100615.12
2017-09-08T04:55:45.416Z,100621.00
2017-09-08T04:58:13.904Z,100619.63
2017-09-08T05:00:42.399Z,100616.97
2017-09-08T05:03:10.876Z,100610.72
2017-09-08T05:05:39.332Z,100604.88
2017-09-08T05:08:08.569Z,100610.37
2017-09-08T05:10:37.027Z,100602.81
2017-09-08T05:13:05.456Z,100605.48
2017-09-08T05:15:33.899Z,100609.53
2017-09-08T05:18:02.385Z,100605.91
2017-09-08T05:20:30.855Z,100613.70
2017-09-08T05:22:59.348Z,100611.55
2017-09-08T05:25:27.830Z,100611.52
2017-09-08T05:27:56.303Z,100608.02
2017-09-08T05:30:24.788Z,100607.36
2017-09-08T05:32:53.267Z,100603.86
2017-09-08T05:35:21.767Z,100598.33
2017-09-08T05:37:50.245Z,100594.16
2017-09-08T05:40:18.725Z,100593.65
2017-09-08T05:42:47.195Z,100578.86
2017-09-08T05:45:15.629Z,100580.82
2017-09-08T05:47:44.159Z,100581.33
2017-09-08T05:50:12.648Z,100580.45
2017-09-08T05:52:41.127Z,100575.36
2017-09-08T05:55:09.607Z,100571.17
2017-09-08T05:57:38.061Z,100568.55
2017-09-08T06:00:07.301Z,100567.88
2017-09-08T06:02:35.785Z,100559.36
2017-09-08T06:05:04.263Z,100562.36
2017-09-08T06:07:32.730Z,100552.51
2017-09-08T06:10:01.164Z,100546.23
2017-09-08T06:12:29.707Z,100543.52
2017-09-08T06:14:58.165Z,100542.11
2017-09-08T06:17:27.385Z,100538.81
2017-09-08T06:19:55.823Z,100532.84
2017-09-08T06:22:25.055Z,100533.80
2017-09-08T06:24:53.548Z,100533.30
2017-09-08T06:27:21.975Z,100527.13
2017-09-08T06:29:50.424Z,100526.94
2017-09-08T06:32:18.883Z,100520.87
2017-09-08T06:34:47.385Z,100516.45
2017-09-08T06:37:16.254Z,100519.93
2017-09-08T06:39:44.748Z,100515.69
2017-09-08T06:42:13.218Z,100512.13
2017-09-08T06:44:41.675Z,100515.77
2017-09-08T06:47:11.024Z,100510.84
2017-09-08T06:49:39.460Z,100517.86
2017-09-08T06:52:08.776Z,100514.80
2017-09-08T06:54:38.097Z,100506.42
2017-09-08T06:57:06.522Z,100503.06
2017-09-08T06:59:35.056Z,100502.00
2017-09-08T07:02:03.532Z,100507.73
2017-09-08T07:04:31.988Z,100507.61
2017-09-08T07:07:01.220Z,100500.38
2017-09-08T07:09:29.671Z,100493.30
2017-09-08T07:11:58.899Z,100495.28
2017-09-08T07:14:27.353Z,100499.67
2017-09-08T07:16:56.580Z,100500.50
2017-09-08T07:19:25.028Z,100495.00
2017-09-08T07:21:54.260Z,100495.90
2017-09-08T07:24:22.744Z,100488.43
2017-09-08T07:26:51.224Z,100489.81
2017-09-08T07:29:19.708Z,100484.52
2017-09-08T07:31:48.182Z,100485.30
2017-09-08T07:34:16.643Z,100474.05
2017-09-08T07:36:45.841Z,100470.25
2017-09-08T07:39:15.037Z,100480.76
2017-09-08T07:41:44.272Z,100480.98
2017-09-08T07:44:12.698Z,100483.42
2017-09-08T07:46:41.232Z,100473.11
2017-09-08T07:49:09.715Z,100473.41
2017-09-08T07:51:38.201Z,100461.27
2017-09-08T07:54:06.627Z,100464.97
2017-09-08T07:56:35.080Z,100456.91
2017-09-08T07:59:03.513Z,100457.75
2017-09-08T08:01:32.719Z,100457.33
2017-09-08T08:04:01.912Z,100447.36
2017-09-08T08:06:31.150Z,100443.80
2017-09-08T08:08:59.626Z,100442.28
2017-09-08T08:11:28.076Z,100432.36
2017-09-08T08:13:57.275Z,100436.56
2017-09-08T08:16:26.591Z,100439.42
2017-09-08T08:18:55.019Z,100429.66
2017-09-08T08:21:23.567Z,100434.34
2017-09-08T08:23:52.059Z,100430.77
2017-09-08T08:26:20.537Z,100427.44
2017-09-08T08:28:48.960Z,100430.15
2017-09-08T08:31:17.400Z,100420.03
2017-09-08T08:33:45.836Z,100422.63
2017-09-08T08:36:15.065Z,100422.59
2017-09-08T08:38:43.605Z,100416.58
2017-09-08T08:41:12.051Z,100416.93
2017-09-08T08:43:40.508Z,100419.63
2017-09-08T08:46:09.003Z,100414.97
2017-09-08T08:48:37.481Z,100409.64
2017-09-08T08:51:05.916Z,100411.06
2017-09-08T08:53:34.444Z,100411.01
2017-09-08T08:56:02.872Z,100397.66
2017-09-08T08:58:31.411Z,100397.47
2017-09-08T09:00:59.845Z,100390.89
2017-09-08T09:03:29.064Z,100393.98
2017-09-08T09:05:58.251Z,100389.13
2017-09-08T09:08:27.476Z,100378.67
2017-09-08T09:10:55.972Z,100378.59
2017-09-08T09:13:24.455Z,100373.80
2017-09-08T09:15:52.931Z,100381.56
2017-09-08T09:18:21.389Z,100382.16
2017-09-08T09:20:50.583Z,100377.92
2017-09-08T09:23:19.804Z,100376.52
2017-09-08T09:25:48.287Z,100371.16
2017-09-08T09:28:16.750Z,100369.59
2017-09-08T09:30:45.976Z,100365.34
2017-09-08T09:33:14.456Z,100359.27
2017-09-08T09:35:42.936Z,100374.52
2017-09-08T09:38:11.415Z,100358.28
2017-09-08T09:40:39.904Z,100355.22
2017-09-08T09:43:08.352Z,100350.20
2017-09-08T09:45:37.552Z,100351.45
2017-09-08T09:48:06.773Z,100345.81
2017-09-08T09:50:35.269Z,100347.62
2017-09-08T09:53:03.695Z,100342.56
2017-09-08T09:55:32.140Z,100338.87
2017-09-08T09:58:00.567Z,100330.03
2017-09-08T10:00:29.096Z,100329.26
2017-09-08T10:02:57.579Z,100327.18
2017-09-08T10:05:26.056Z,100328.05
2017-09-08T10:07:54.551Z,100324.83
2017-09-08T10:10:23.020Z,100323.97
2017-09-08T10:12:51.448Z,100320.31
2017-09-08T10:15:19.988Z,100317.00
2017-09-08T10:17:48.425Z,100320.34
2017-09-08T10:20:17.678Z,100313.97
2017-09-08T10:22:46.139Z,100318.16
2017-09-08T10:25:14.637Z,100317.95
2017-09-08T10:27:43.072Z,100317.66
2017-09-08T10:30:12.308Z,100309.81
2017-09-08T10:32:40.740Z,100311.05
2017-09-08T10:35:09.197Z,100301.72
2017-09-08T10:37:37.623Z,100302.59
2017-09-08T10:40:06.831Z,100303.11
2017-09-08T10:42:36.042Z,100301.44
2017-09-08T10:45:04.532Z,100295.38
2017-09-08T10:47:32.960Z,100292.13
2017-09-08T10:50:01.409Z,100293.33
2017-09-08T10:52:29.873Z,100291.47
2017-09-08T10:54:58.356Z,100286.57
2017-09-08T10:57:26.841Z,100288.64
2017-09-08T10:59:55.319Z,100289.83
2017-09-08T11:02:23.800Z,100292.76
2017-09-08T11:04:52.256Z,100293.61
2017-09-08T11:07:21.489Z,100287.54
2017-09-08T11:09:49.937Z,100287.30
2017-09-08T11:12:19.476Z,100276.20
2017-09-08T11:14:47.923Z,100271.72
2017-09-08T11:17:17.153Z,100276.18
2017-09-08T11:19:45.636Z,100280.59
2017-09-08T11:22:14.132Z,100275.04
2017-09-08T11:24:42.607Z,100281.16
2017-09-08T11:27:11.080Z,100278.23
2017-09-08T11:29:39.560Z,100275.83
2017-09-08T11:32:07.988Z,100265.06
2017-09-08T11:34:42.055Z,100256.87
2017-09-08T11:37:10.492Z,100256.95
2017-09-08T11:39:38.952Z,100256.27
2017-09-08T11:42:07.387Z,100250.75
2017-09-08T11:44:35.827Z,100250.11
2017-09-08T11:47:05.180Z,100263.72
2017-09-08T11:49:33.608Z,100256.18
2017-09-08T11:52:02.148Z,100257.66
2017-09-08T11:54:30.577Z,100261.39
2017-09-08T11:56:59.091Z,100255.05
2017-09-08T11:59:28.313Z,100247.77
2017-09-08T12:01:56.759Z,100254.60
2017-09-08T12:04:25.996Z,100256.06
2017-09-08T12:06:54.472Z,100240.00
2017-09-08T12:09:22.951Z,100240.42
2017-09-08T12:11:51.445Z,100247.03
2017-09-08T12:14:19.876Z,100230.83
2017-09-08T12:16:49.133Z,100230.30
2017-09-08T12:19:17.559Z,100232.88
2017-09-08T12:21:46.781Z,100219.44
2017-09-08T12:24:15.996Z,100214.14
2017-09-08T12:26:44.448Z,100223.77
2017-09-08T12:29:13.686Z,100209.76
2017-09-08T12:31:42.166Z,100207.23
2017-09-08T12:34:10.610Z,100214.17
2017-09-08T12:36:39.940Z,100210.22
2017-09-08T12:39:08.371Z,100209.99
2017-09-08T12:41:36.819Z,100209.91
2017-09-08T12:44:05.256Z,100204.13
2017-09-08T12:46:34.588Z,100202.77
2017-09-08T12:49:03.015Z,100200.02
2017-09-08T12:51:31.552Z,100200.55
2017-09-08T12:53:59.989Z,100192.77
2017-09-08T12:56:28.531Z,100189.42
2017-09-08T12:58:56.997Z,100188.46
2017-09-08T13:01:25.480Z,100187.47
2017-09-08T13:03:53.964Z,100184.16
2017-09-08T13:06:22.445Z,100190.19
2017-09-08T13:08:50.875Z,100189.00
2017-09-08T13:11:19.323Z,100182.48
2017-09-08T13:13:47.779Z,100183.24
2017-09-08T13:16:16.271Z,100187.80
2017-09-08T13:18:44.766Z,100172.06
2017-09-08T13:21:13.217Z,100173.26
2017-09-08T13:23:41.720Z,100167.30
2017-09-08T13:26:10.202Z,100164.84
2017-09-08T13:28:38.689Z,100165.20
2017-09-08T13:31:07.164Z,100163.98
2017-09-08T13:33:35.648Z,100170.50
2017-09-08T13:36:05.507Z,100166.70
2017-09-08T13:38:34.666Z,100159.30
2017-09-08T13:41:03.145Z,100164.86
2017-09-08T13:43:31.580Z,100161.48
2017-09-08T13:46:00.116Z,100164.33
2017-09-08T13:48:28.548Z,100160.30
2017-09-08T13:50:57.781Z,100159.57
2017-09-08T13:53:26.232Z,100156.34
2017-09-08T13:55:55.464Z,100158.98
2017-09-08T13:58:24.057Z,100161.41
2017-09-08T14:00:52.496Z,100165.94
2017-09-08T14:03:21.708Z,100158.56
2017-09-08T14:05:50.904Z,100149.44
2017-09-08T14:08:20.128Z,100154.84
2017-09-08T14:10:48.616Z,100152.97
2017-09-08T14:13:17.088Z,100152.01
2017-09-08T14:15:45.511Z,100156.57
2017-09-08T14:18:13.960Z,100146.17
2017-09-08T14:20:42.392Z,100142.45
2017-09-08T14:23:10.849Z,100145.17
2017-09-08T14:25:39.301Z,100140.50
2017-09-08T14:28:07.776Z,100142.75
2017-09-08T14:30:36.209Z,100145.63
2017-09-08T14:33:04.656Z,100139.37
2017-09-08T14:35:33.092Z,100133.77
2017-09-08T14:38:02.317Z,100146.00
2017-09-08T14:40:30.749Z,100136.03
2017-09-08T14:42:59.284Z,100142.89
2017-09-08T14:45:27.712Z,100146.31
2017-09-08T14:47:56.928Z,100139.35
2017-09-08T14:50:26.129Z,100137.12
2017-09-08T14:52:55.348Z,100140.59
2017-09-08T14:55:23.840Z,100148.19
2017-09-08T14:57:52.324Z,100142.83
2017-09-08T15:00:20.752Z,100133.22
2017-09-08T15:02:49.289Z,100131.64
2017-09-08T15:05:17.782Z,100136.38
2017-09-08T15:07:46.251Z,100135.33
2017-09-08T15:10:14.736Z,100135.69
2017-09-08T15:12:43.220Z,100133.44
2017-09-08T15:15:11.696Z,100137.53
2017-09-08T15:17:40.180Z,100127.16
2017-09-08T15:20:08.680Z,100127.43
2017-09-08T15:22:37.133Z,100136.45
2017-09-08T15:25:05.628Z,100135.64
2017-09-08T15:27:34.112Z,100134.42
2017-09-08T15:30:02.547Z,100131.14
2017-09-08T15:32:31.799Z,100126.36
2017-09-08T15:35:00.277Z,100132.45
2017-09-08T15:37:28.728Z,100134.39
2017-09-08T15:39:57.952Z,100134.63
2017-09-08T15:42:26.436Z,100131.75
2017-09-08T15:44:54.917Z,100130.66
2017-09-08T15:47:23.364Z,100130.03
2017-09-08T15:49:52.560Z,100131.69
2017-09-08T15:52:21.760Z,100123.94
2017-09-08T15:54:50.996Z,100120.73
2017-09-08T15:57:19.428Z,100124.61
2017-09-08T15:59:47.876Z,100127.29
2017-09-08T16:02:16.344Z,100123.77
2017-09-08T16:04:44.808Z,100121.52
2017-09-08T16:07:13.304Z,100122.40
2017-09-08T16:09:41.784Z,100128.37
2017-09-08T16:12:10.269Z,100125.28
2017-09-08T16:14:38.753Z,100124.13
2017-09-08T16:17:07.250Z,100122.25
2017-09-08T16:19:35.815Z,100126.73
2017-09-08T16:22:04.341Z,100124.47
2017-09-08T16:24:32.883Z,100128.20
2017-09-08T16:27:01.316Z,100125.81
2017-09-08T16:29:29.854Z,100123.27
2017-09-08T16:31:58.334Z,100120.88
2017-09-08T16:34:26.817Z,100115.57
2017-09-08T16:36:55.297Z,100126.05
2017-09-08T16:39:23.772Z,100123.80
2017-09-08T16:41:52.256Z,100122.85
2017-09-08T16:44:20.735Z,100123.38
2017-09-08T16:46:49.228Z,100115.25
2017-09-08T16:49:17.715Z,100116.73
2017-09-08T16:51:46.199Z,100111.91
2017-09-08T16:54:14.663Z,100115.59
2017-09-08T16:56:43.087Z,100113.28
2017-09-08T16:59:11.628Z,100114.33
2017-09-08T17:01:40.112Z,100104.98
2017-09-08T17:04:08.592Z,100101.25
2017-09-08T17:06:37.081Z,100104.94
2017-09-08T17:09:05.559Z,100096.71
2017-09-08T17:11:34.040Z,100102.94
2017-09-08T17:14:02.488Z,100093.38
2017-09-08T17:16:31.685Z,100095.88
2017-09-08T17:19:00.909Z,100099.42
2017-09-08T17:21:29.633Z,100092.11
2017-09-08T17:23:58.101Z,100097.77
2017-09-08T17:26:26.545Z,100091.86
2017-09-08T17:28:55.972Z,100093.96
2017-09-08T17:31:24.457Z,100100.19
2017-09-08T17:33:52.936Z,100095.41
2017-09-08T17:36:21.396Z,100091.70
2017-09-08T17:38:50.616Z,100093.50
2017-09-08T17:41:19.100Z,100093.67
2017-09-08T17:43:47.543Z,100097.92
2017-09-08T17:46:16.780Z,100081.64
2017-09-08T17:48:45.253Z,100091.49
2017-09-08T17:51:13.744Z,100095.01
2017-09-08T17:53:42.333Z,100095.67
2017-09-08T17:56:10.813Z,100091.70
2017-09-08T17:58:39.294Z,100096.48
2017-09-08T18:01:08.492Z,100087.38
2017-09-08T18:03:36.982Z,100094.82
2017-09-08T18:06:05.460Z,100092.26
2017-09-08T18:08:33.892Z,100093.88
2017-09-08T18:11:02.433Z,100093.88
2017-09-08T18:13:30.873Z,100092.58
2017-09-08T18:16:00.115Z,100089.76
2017-09-08T18:18:28.579Z,100086.31
2017-09-08T18:20:57.037Z,100092.71
2017-09-08T18:23:26.268Z,100083.49
2017-09-08T18:25:54.725Z,100096.43
2017-09-08T18:28:23.235Z,100090.53
2017-09-08T18:30:51.708Z,100101.28
2017-09-08T18:33:20.196Z,100092.80
2017-09-08T18:35:48.644Z,100099.59
2017-09-08T18:38:17.844Z,100092.38
2017-09-08T18:40:47.172Z,100088.05
2017-09-08T18:43:15.655Z,100088.80
2017-09-08T18:45:44.140Z,100082.33
2017-09-08T18:48:12.624Z,100083.20
2017-09-08T18:50:41.099Z,100086.09
2017-09-08T18:53:09.537Z,100092.98
2017-09-08T18:55:38.068Z,100080.44
2017-09-08T18:58:06.505Z,100087.88
2017-09-08T19:00:35.028Z,100089.15
2017-09-08T19:03:03.463Z,100080.61
2017-09-08T19:05:31.925Z,100078.39
2017-09-08T19:08:00.393Z,100077.80
2017-09-08T19:10:28.980Z,100077.45
2017-09-08T19:12:57.416Z,100071.50
2017-09-08T19:15:26.701Z,100073.02
2017-09-08T19:17:55.989Z,100074.00
2017-09-08T19:20:24.421Z,100069.05
2017-09-08T19:22:52.876Z,100057.16
2017-09-08T19:25:22.107Z,100062.27
2017-09-08T19:27:50.560Z,100055.20
2017-09-08T19:30:19.784Z,100056.11
2017-09-08T19:32:48.237Z,100056.99
2017-09-08T19:35:17.455Z,100054.71
2017-09-08T19:37:45.951Z,100045.92
2017-09-08T19:40:14.437Z,100040.63
2017-09-08T19:42:42.908Z,100043.12
2017-09-08T19:45:11.335Z,100035.07
2017-09-08T19:47:39.784Z,100035.11
2017-09-08T19:50:08.231Z,100038.16
2017-09-08T19:52:36.688Z,100037.67
2017-09-08T19:55:05.218Z,100037.74
2017-09-08T19:57:33.678Z,100044.28
2017-09-08T20:00:02.898Z,100034.41
2017-09-08T20:02:31.346Z,100030.33
2017-09-08T20:05:00.588Z,100036.41
2017-09-08T20:07:29.034Z,100035.14
2017-09-08T20:09:58.266Z,100021.01
2017-09-08T20:12:26.750Z,100022.95
2017-09-08T20:14:55.196Z,100032.54
2017-09-08T20:17:24.513Z,100029.27
2017-09-08T20:19:52.940Z,100025.94
2017-09-08T20:22:21.389Z,100020.84
2017-09-08T20:24:49.819Z,100014.89
2017-09-08T20:27:18.349Z,100014.58
2017-09-08T20:29:46.836Z,100006.00
2017-09-08T20:32:15.284Z,100004.10
2017-09-08T20:34:44.512Z,100000.91
2017-09-08T20:37:12.959Z,100002.31
2017-09-08T20:39:42.191Z,100001.50
2017-09-08T20:42:10.680Z,100001.61
2017-09-08T20:44:39.160Z,99993.00
2017-09-08T20:47:07.642Z,99995.91
2017-09-08T20:49:36.068Z,99986.88
2017-09-08T20:52:04.597Z,99988.36
2017-09-08T20:54:33.025Z,99989.51
2017-09-08T20:57:01.569Z,99984.31
2017-09-08T20:59:30.052Z,99978.27
2017-09-08T21:01:58.520Z,99973.20
2017-09-08T21:04:27.022Z,99972.43
2017-09-08T21:06:55.496Z,99981.08
2017-09-08T21:09:23.924Z,99980.13
2017-09-08T21:11:52.371Z,99964.98
2017-09-08T21:14:20.797Z,99975.28
2017-09-08T21:16:50.025Z,99970.64
2017-09-08T21:19:18.461Z,99965.83
2017-09-08T21:21:46.999Z,99970.89
2017-09-08T21:24:15.448Z,99967.41
2017-09-08T21:26:44.684Z,99959.98
2017-09-08T21:29:13.164Z,99974.75
2017-09-08T21:31:41.648Z,99982.41
2017-09-08T21:34:10.096Z,99983.53
2017-09-08T21:36:39.292Z,99971.84
2017-09-08T21:39:08.516Z,99969.69
2017-09-08T21:41:36.940Z,99973.56
2017-09-08T21:44:05.383Z,99977.84
2017-09-08T21:46:33.874Z,99968.32
2017-09-08T21:49:02.353Z,99974.37
2017-09-08T21:51:30.795Z,99964.73
2017-09-08T21:54:00.046Z,99959.81
2017-09-08T21:56:28.469Z,99963.40
2017-09-08T21:58:56.912Z,99958.80
2017-09-08T22:01:25.352Z,99958.20
2017-09-08T22:03:54.564Z,99956.30
2017-09-08T22:06:23.060Z,99954.16
2017-09-08T22:08:51.540Z,99952.78
2017-09-08T22:11:19.968Z,99943.26
2017-09-08T22:13:48.402Z,99941.86
2017-09-08T22:16:16.884Z,99932.79
2017-09-08T22:18:45.332Z,99926.77
2017-09-08T22:21:14.523Z,99912.58
2017-09-08T22:23:43.765Z,99907.73
2017-09-08T22:26:12.244Z,99922.38
2017-09-08T22:28:40.692Z,99922.88
2017-09-08T22:31:09.926Z,99928.85
2017-09-08T22:33:38.418Z,99923.75
2017-09-08T22:36:06.888Z,99930.99
2017-09-08T22:38:35.344Z,99932.72
2017-09-08T22:41:04.567Z,99922.20
2017-09-08T22:43:33.007Z,99919.56
2017-09-08T22:46:01.436Z,99910.99
2017-09-08T22:48:29.917Z,99911.06
2017-09-08T22:50:58.348Z,99924.63
2017-09-08T22:53:26.796Z,99923.79
2017-09-08T22:55:55.871Z,99918.73
2017-09-08T22:58:24.324Z,99918.48
2017-09-08T23:00:53.556Z,99921.62
2017-09-08T23:03:22.005Z,99912.23
2017-09-08T23:05:51.241Z,99908.16
2017-09-08T23:08:19.713Z,99904.54
2017-09-08T23:10:48.140Z,99907.64
2017-09-08T23:13:16.590Z,99910.06
2017-09-08T23:15:45.064Z,99908.38
2017-09-08T23:18:13.503Z,99896.21
2017-09-08T23:20:42.693Z,99902.19
2017-09-08T23:23:11.140Z,99894.48
2017-09-08T23:25:39.604Z,99884.58
2017-09-08T23:28:08.085Z,99884.44
2017-09-08T23:30:36.567Z,99880.50
2017-09-08T23:33:05.047Z,99890.94
2017-09-08T23:35:33.525Z,99892.20
2017-09-08T23:38:01.949Z,99885.70
2017-09-08T23:40:30.492Z,99881.23
2017-09-08T23:42:58.980Z,99868.52
2017-09-08T23:45:27.473Z,99868.86
2017-09-08T23:47:55.900Z,99871.81
2017-09-08T23:50:25.141Z,99870.37
2017-09-08T23:52:53.621Z,99873.04
2017-09-08T23:55:22.073Z,99867.38
2017-09-08T23:57:51.304Z,99872.09
